createdAt,value
2022-12-12T00:01:21.062Z,9.77
2022-12-12T00:06:23.695Z,8.90
2022-12-12T00:11:26.405Z,9.10
2022-12-12T00:16:28.397Z,8.38
2022-12-12T00:21:30.722Z,8.18
2022-12-12T00:26:34.481Z,8.35
2022-12-12T00:31:36.195Z,8.55
2022-12-12T00:36:38.091Z,8.27
2022-12-12T00:41:39.690Z,8.07
2022-12-12T00:46:42.422Z,8.48
2022-12-12T00:51:45.058Z,8.50
2022-12-12T00:56:47.071Z,8.50
2022-12-12T01:01:48.866Z,8.95
2022-12-12T01:06:50.472Z,7.88
2022-12-12T01:11:52.144Z,7.65
2022-12-12T01:16:53.710Z,7.90
2022-12-12T01:21:55.722Z,8.10
2022-12-12T01:26:57.747Z,9.02
2022-12-12T01:31:59.472Z,8.25
2022-12-12T01:37:01.151Z,7.45
2022-12-12T01:42:02.835Z,8.02
2022-12-12T01:47:04.841Z,8.38
2022-12-12T01:52:11.458Z,8.18
2022-12-12T01:57:20.761Z,8.38
2022-12-12T02:02:22.493Z,8.35
2022-12-12T02:07:24.357Z,8.57
2022-12-12T02:12:25.987Z,8.70
2022-12-12T02:17:52.892Z,8.73
2022-12-12T02:23:15.108Z,9.23
2022-12-12T02:28:28.686Z,10.32
2022-12-12T02:33:40.357Z,10.13
2022-12-12T02:39:00.722Z,11.20
2022-12-12T02:44:16.398Z,10.43
2022-12-12T02:49:31.087Z,11.55
2022-12-12T02:54:32.700Z,11.38
2022-12-12T02:59:38.928Z,11.10
2022-12-12T03:05:21.045Z,10.35
2022-12-12T03:10:25.732Z,10.13
2022-12-12T03:15:59.004Z,10.77
2022-12-12T03:21:10.465Z,10.13
2022-12-12T03:26:19.998Z,10.65
2022-12-12T03:31:26.556Z,10.63
2022-12-12T03:36:45.593Z,10.90
2022-12-12T03:41:54.767Z,11.00
2022-12-12T03:47:11.255Z,9.93
2022-12-12T03:52:37.543Z,10.27
2022-12-12T03:57:49.636Z,10.13
2022-12-12T04:02:56.585Z,9.48
2022-12-12T04:08:13.235Z,9.27
2022-12-12T04:13:44.331Z,9.75
2022-12-12T04:19:37.216Z,9.13
2022-12-12T04:24:48.331Z,7.18
2022-12-12T04:30:02.314Z,8.45
2022-12-12T04:35:14.501Z,8.48
2022-12-12T04:40:25.203Z,8.90
2022-12-12T04:45:39.170Z,8.35
2022-12-12T04:50:42.459Z,8.57
2022-12-12T04:55:49.204Z,9.07
2022-12-12T05:01:03.744Z,7.93
2022-12-12T05:06:11.469Z,8.45
2022-12-12T05:11:14.396Z,8.68
2022-12-12T05:16:27.564Z,8.57
2022-12-12T05:21:29.239Z,8.52
2022-12-12T05:26:33.442Z,7.28
2022-12-12T05:31:35.903Z,8.07
2022-12-12T05:36:37.565Z,7.95
2022-12-12T05:41:39.143Z,8.55
2022-12-12T05:46:40.768Z,10.73
2022-12-12T05:51:42.586Z,10.35
2022-12-12T05:56:44.297Z,10.25
2022-12-12T06:01:45.877Z,10.85
2022-12-12T06:06:47.474Z,10.95
2022-12-12T06:11:50.272Z,21.70
2022-12-12T06:16:52.668Z,12.07
2022-12-12T06:21:54.621Z,10.30
2022-12-12T06:26:56.460Z,9.63
2022-12-12T06:31:58.023Z,12.90
2022-12-12T06:36:59.677Z,9.48
2022-12-12T06:42:01.280Z,9.68
2022-12-12T06:47:02.903Z,9.95
2022-12-12T06:52:04.747Z,10.05
2022-12-12T06:57:06.434Z,10.25
2022-12-12T07:02:11.011Z,10.32
2022-12-12T07:07:12.928Z,10.45
2022-12-12T07:12:14.888Z,11.38
2022-12-12T07:17:16.480Z,10.10
2022-12-12T07:22:18.121Z,11.13
2022-12-12T07:27:21.800Z,10.70
2022-12-12T07:32:23.960Z,8.68
2022-12-12T07:37:26.009Z,9.05
2022-12-12T07:42:27.750Z,9.27
2022-12-12T07:47:29.313Z,8.65
2022-12-12T07:52:31.073Z,8.35
2022-12-12T07:57:33.575Z,7.70
2022-12-12T08:02:35.173Z,8.00
2022-12-12T08:07:36.772Z,7.45
2022-12-12T08:12:38.689Z,7.07
2022-12-12T08:17:40.480Z,8.27
2022-12-12T08:22:42.194Z,7.32
2022-12-12T08:27:44.423Z,7.32
2022-12-12T08:32:46.001Z,7.88
2022-12-12T08:37:47.811Z,8.60
2022-12-12T08:42:50.018Z,8.25
2022-12-12T08:47:51.624Z,8.77
2022-12-12T08:52:53.289Z,9.85
2022-12-12T08:57:54.896Z,9.57
2022-12-12T09:02:56.891Z,8.73
2022-12-12T09:07:59.721Z,8.85
2022-12-12T09:13:01.367Z,7.70
2022-12-12T09:18:03.972Z,8.93
2022-12-12T09:23:06.016Z,7.97
2022-12-12T09:28:08.184Z,7.32
2022-12-12T09:33:11.142Z,7.10
2022-12-12T09:38:14.797Z,7.53
2022-12-12T09:43:37.112Z,7.22
2022-12-12T09:48:44.364Z,8.50
2022-12-12T09:53:47.004Z,9.15
2022-12-12T09:59:11.706Z,8.35
2022-12-12T10:04:39.683Z,9.18
2022-12-12T10:09:54.285Z,8.88
2022-12-12T10:15:03.921Z,9.15
2022-12-12T10:20:20.656Z,10.50
2022-12-12T10:25:33.590Z,10.20
2022-12-12T10:30:42.077Z,10.55
2022-12-12T10:35:58.957Z,9.80
2022-12-12T10:41:11.991Z,8.90
2022-12-12T10:46:28.172Z,9.88
2022-12-12T10:51:30.987Z,13.80
2022-12-12T10:56:32.572Z,10.45
2022-12-12T11:02:09.203Z,10.57
2022-12-12T11:07:00.693Z,12.15
2022-12-12T11:12:12.205Z,11.40
2022-12-12T11:17:21.111Z,10.40
2022-12-12T11:22:23.579Z,11.68
2022-12-12T11:27:41.427Z,12.70
2022-12-12T11:32:48.425Z,10.40
2022-12-12T11:37:55.453Z,11.85
2022-12-12T11:43:22.461Z,11.90
2022-12-12T11:48:33.144Z,12.02
2022-12-12T11:53:41.165Z,10.13
2022-12-12T11:59:00.708Z,12.57
2022-12-12T12:04:37.884Z,10.75
2022-12-12T12:09:48.326Z,10.98
2022-12-12T12:14:53.073Z,10.55
2022-12-12T12:20:06.796Z,10.40
2022-12-12T12:25:22.005Z,9.93
2022-12-12T12:30:26.028Z,10.93
2022-12-12T12:35:30.953Z,12.75
2022-12-12T12:40:47.860Z,10.13
2022-12-12T12:45:57.605Z,10.40
2022-12-12T12:51:27.299Z,10.20
2022-12-12T12:56:38.584Z,11.30
2022-12-12T13:01:51.081Z,10.38
2022-12-12T13:07:13.961Z,9.65
2022-12-12T13:12:25.548Z,10.57
2022-12-12T13:17:41.528Z,10.23
2022-12-12T13:23:06.329Z,11.18
2022-12-12T13:28:15.425Z,11.40
2022-12-12T13:33:27.146Z,11.20
2022-12-12T13:38:32.844Z,11.68
2022-12-12T13:43:37.902Z,11.00
2022-12-12T13:48:46.802Z,12.88
2022-12-12T13:53:48.929Z,12.27
2022-12-12T13:58:50.573Z,10.80
2022-12-12T14:03:52.691Z,10.98
2022-12-12T14:08:54.580Z,11.80
2022-12-12T14:14:13.810Z,14.07
2022-12-12T14:19:26.558Z,12.68
2022-12-12T14:24:33.996Z,14.45
2022-12-12T14:29:41.073Z,12.83
2022-12-12T14:35:12.172Z,12.13
2022-12-12T14:40:21.667Z,11.63
2022-12-12T14:45:29.726Z,11.32
2022-12-12T14:50:31.806Z,12.18
2022-12-12T14:55:34.369Z,12.82
2022-12-12T15:00:46.540Z,13.63
2022-12-12T15:05:48.320Z,12.60
2022-12-12T15:10:58.713Z,12.65
2022-12-12T15:16:00.469Z,13.00
2022-12-12T15:21:02.281Z,12.80
2022-12-12T15:26:04.324Z,13.38
2022-12-12T15:31:06.022Z,13.13
2022-12-12T15:36:19.945Z,13.43
2022-12-12T15:41:22.004Z,13.93
2022-12-12T15:46:23.876Z,13.75
2022-12-12T15:51:31.582Z,14.52
2022-12-12T15:56:33.221Z,13.43
2022-12-12T16:01:35.452Z,13.88
2022-12-12T16:06:47.364Z,13.23
2022-12-12T16:11:55.879Z,14.77
2022-12-12T16:22:13.400Z,15.05
2022-12-12T16:27:15.190Z,12.80
2022-12-12T16:32:19.109Z,13.20
2022-12-12T16:37:21.045Z,13.30
2022-12-12T16:42:24.064Z,13.77
2022-12-12T16:47:25.885Z,12.48
2022-12-12T16:52:28.037Z,12.90
2022-12-12T16:57:29.604Z,13.40
2022-12-12T17:02:32.619Z,12.15
2022-12-12T17:07:34.180Z,14.27
2022-12-12T17:12:38.423Z,12.20
2022-12-12T17:17:40.380Z,12.18
2022-12-12T17:22:42.338Z,13.13
2022-12-12T17:27:44.338Z,12.25
2022-12-12T17:38:05.024Z,11.25
2022-12-12T17:43:06.605Z,10.73
2022-12-12T17:48:08.208Z,11.10
2022-12-12T17:53:09.785Z,11.23
2022-12-12T17:58:11.688Z,10.73
2022-12-12T18:03:13.372Z,10.18
2022-12-12T18:08:15.090Z,10.88
2022-12-12T18:13:16.738Z,10.23
2022-12-12T18:18:18.449Z,10.30
2022-12-12T18:23:20.321Z,9.88
2022-12-12T18:28:21.946Z,9.70
2022-12-12T18:33:23.592Z,9.55
2022-12-12T18:38:25.177Z,8.95
2022-12-12T18:43:28.794Z,8.45
2022-12-12T18:48:30.663Z,10.05
2022-12-12T18:53:32.661Z,9.45
2022-12-12T18:58:35.386Z,9.73
2022-12-12T19:03:39.136Z,10.13
2022-12-12T19:08:41.319Z,10.32
2022-12-12T19:13:43.175Z,10.25
2022-12-12T19:18:45.827Z,9.88
2022-12-12T19:23:48.384Z,9.80
2022-12-12T19:28:50.054Z,13.35
2022-12-12T19:33:52.499Z,10.77
2022-12-12T19:38:56.516Z,9.82
2022-12-12T19:44:01.638Z,10.70
2022-12-12T19:49:08.409Z,9.00
2022-12-12T19:54:13.827Z,10.77
2022-12-12T19:59:17.831Z,9.38
2022-12-12T20:04:22.820Z,9.23
2022-12-12T20:09:29.592Z,11.32
2022-12-12T20:14:33.972Z,8.23
2022-12-12T20:19:35.547Z,8.20
2022-12-12T20:24:37.882Z,8.65
2022-12-12T20:29:39.855Z,8.38
2022-12-12T20:34:41.444Z,8.57
2022-12-12T20:39:43.086Z,11.05
2022-12-12T20:44:44.689Z,8.95
2022-12-12T20:49:48.211Z,9.43
2022-12-12T20:54:49.864Z,9.45
2022-12-12T20:59:51.516Z,8.43
2022-12-12T21:04:54.156Z,9.20
2022-12-12T21:09:55.973Z,9.02
2022-12-12T21:15:02.573Z,8.18
2022-12-12T21:20:06.886Z,9.20
2022-12-12T21:25:08.753Z,9.05
2022-12-12T21:30:10.775Z,8.32
2022-12-12T21:35:12.723Z,9.25
2022-12-12T21:40:14.496Z,8.80
2022-12-12T21:45:17.370Z,8.82
2022-12-12T21:50:18.948Z,8.75
2022-12-12T21:55:20.573Z,7.93
2022-12-12T22:00:25.799Z,8.25
2022-12-12T22:05:27.355Z,8.23
2022-12-12T22:10:29.266Z,9.30
2022-12-12T22:15:31.202Z,7.80
2022-12-12T22:20:35.749Z,8.35
2022-12-12T22:25:37.391Z,8.77
2022-12-12T22:30:39.244Z,8.77
2022-12-12T22:35:41.094Z,8.70
2022-12-12T22:40:43.011Z,7.75
2022-12-12T22:45:45.052Z,7.57
2022-12-12T22:50:46.648Z,7.07
2022-12-12T22:55:48.305Z,7.03
2022-12-12T23:00:50.090Z,7.55
2022-12-12T23:05:51.932Z,7.95
2022-12-12T23:10:53.751Z,8.45
2022-12-12T23:15:55.410Z,11.35
2022-12-12T23:20:57.104Z,12.07
2022-12-12T23:26:11.287Z,9.43
2022-12-12T23:31:20.124Z,7.13
2022-12-12T23:36:22.081Z,7.47
2022-12-12T23:41:23.920Z,6.75
2022-12-12T23:46:29.387Z,6.65
2022-12-12T23:51:34.354Z,7.00
2022-12-12T23:56:37.980Z,19.45
